sensor_id;sensor_type;location;lat;lon;timestamp;temperature;humidity
65598;SHT31;52267;51.984;20.956;2022-07-29T00:01:16;12.16;76.07
65598;SHT31;52267;51.984;20.956;2022-07-29T00:03:44;12.14;76.07
65598;SHT31;52267;51.984;20.956;2022-07-29T00:06:11;12.10;76.14
65598;SHT31;52267;51.984;20.956;2022-07-29T00:08:38;12.08;75.96
65598;SHT31;52267;51.984;20.956;2022-07-29T00:11:05;12.07;75.91
65598;SHT31;52267;51.984;20.956;2022-07-29T00:13:32;12.06;75.89
65598;SHT31;52267;51.984;20.956;2022-07-29T00:15:59;12.02;76.04
65598;SHT31;52267;51.984;20.956;2022-07-29T00:18:26;11.97;76.08
65598;SHT31;52267;51.984;20.956;2022-07-29T00:20:53;11.95;75.90
65598;SHT31;52267;51.984;20.956;2022-07-29T00:23:20;11.94;75.50
65598;SHT31;52267;51.984;20.956;2022-07-29T00:25:47;11.92;75.46
65598;SHT31;52267;51.984;20.956;2022-07-29T00:28:14;11.89;75.73
65598;SHT31;52267;51.984;20.956;2022-07-29T00:30:41;11.86;76.00
65598;SHT31;52267;51.984;20.956;2022-07-29T00:33:09;11.84;75.65
65598;SHT31;52267;51.984;20.956;2022-07-29T00:35:36;11.83;75.68
65598;SHT31;52267;51.984;20.956;2022-07-29T00:38:13;11.78;75.75
65598;SHT31;52267;51.984;20.956;2022-07-29T00:40:43;11.75;75.88
65598;SHT31;52267;51.984;20.956;2022-07-29T00:43:11;11.73;76.02
65598;SHT31;52267;51.984;20.956;2022-07-29T00:45:40;11.70;75.76
65598;SHT31;52267;51.984;20.956;2022-07-29T00:48:08;11.69;75.61
65598;SHT31;52267;51.984;20.956;2022-07-29T00:50:36;11.66;75.46
65598;SHT31;52267;51.984;20.956;2022-07-29T00:53:05;11.64;75.66
65598;SHT31;52267;51.984;20.956;2022-07-29T00:55:34;11.63;75.81
65598;SHT31;52267;51.984;20.956;2022-07-29T00:58:02;11.61;75.91
65598;SHT31;52267;51.984;20.956;2022-07-29T01:00:29;11.56;76.00
65598;SHT31;52267;51.984;20.956;2022-07-29T01:02:57;11.52;76.09
65598;SHT31;52267;51.984;20.956;2022-07-29T01:05:25;11.46;76.37
65598;SHT31;52267;51.984;20.956;2022-07-29T01:07:54;11.43;76.43
65598;SHT31;52267;51.984;20.956;2022-07-29T01:10:26;11.43;76.25
65598;SHT31;52267;51.984;20.956;2022-07-29T01:12:54;11.40;76.20
65598;SHT31;52267;51.984;20.956;2022-07-29T01:15:25;11.38;76.32
65598;SHT31;52267;51.984;20.956;2022-07-29T01:18:11;11.36;76.28
65598;SHT31;52267;51.984;20.956;2022-07-29T01:26:42;11.27;76.04
65598;SHT31;52267;51.984;20.956;2022-07-29T01:29:21;11.23;76.01
65598;SHT31;52267;51.984;20.956;2022-07-29T01:32:13;11.24;76.05
65598;SHT31;52267;51.984;20.956;2022-07-29T01:34:48;11.20;76.29
65598;SHT31;52267;51.984;20.956;2022-07-29T01:37:44;11.18;76.16
65598;SHT31;52267;51.984;20.956;2022-07-29T01:40:45;11.17;75.82
65598;SHT31;52267;51.984;20.956;2022-07-29T01:43:20;11.14;75.74
65598;SHT31;52267;51.984;20.956;2022-07-29T01:46:01;11.09;75.92
65598;SHT31;52267;51.984;20.956;2022-07-29T01:51:04;11.04;76.04
65598;SHT31;52267;51.984;20.956;2022-07-29T01:56:31;11.02;75.78
65598;SHT31;52267;51.984;20.956;2022-07-29T01:59:01;11.01;75.66
65598;SHT31;52267;51.984;20.956;2022-07-29T02:01:30;10.98;75.83
65598;SHT31;52267;51.984;20.956;2022-07-29T02:03:59;10.93;75.97
65598;SHT31;52267;51.984;20.956;2022-07-29T02:06:30;10.93;75.83
65598;SHT31;52267;51.984;20.956;2022-07-29T02:09:00;10.91;75.64
65598;SHT31;52267;51.984;20.956;2022-07-29T02:11:29;10.86;75.95
65598;SHT31;52267;51.984;20.956;2022-07-29T02:14:00;10.78;76.74
65598;SHT31;52267;51.984;20.956;2022-07-29T02:16:28;10.70;76.99
65598;SHT31;52267;51.984;20.956;2022-07-29T02:18:57;10.73;76.78
65598;SHT31;52267;51.984;20.956;2022-07-29T02:21:27;10.76;76.45
65598;SHT31;52267;51.984;20.956;2022-07-29T02:23:59;10.76;76.19
65598;SHT31;52267;51.984;20.956;2022-07-29T02:26:28;10.74;76.12
65598;SHT31;52267;51.984;20.956;2022-07-29T02:28:57;10.72;76.12
65598;SHT31;52267;51.984;20.956;2022-07-29T02:31:27;10.70;76.11
65598;SHT31;52267;51.984;20.956;2022-07-29T02:34:00;10.69;75.92
65598;SHT31;52267;51.984;20.956;2022-07-29T02:36:30;10.67;75.84
65598;SHT31;52267;51.984;20.956;2022-07-29T02:38:59;10.64;75.73
65598;SHT31;52267;51.984;20.956;2022-07-29T02:41:38;10.61;75.91
65598;SHT31;52267;51.984;20.956;2022-07-29T02:44:14;10.57;76.10
65598;SHT31;52267;51.984;20.956;2022-07-29T02:46:51;10.56;76.13
65598;SHT31;52267;51.984;20.956;2022-07-29T02:52:08;10.51;76.51
65598;SHT31;52267;51.984;20.956;2022-07-29T02:57:59;10.54;76.27
65598;SHT31;52267;51.984;20.956;2022-07-29T03:00:37;10.53;76.50
65598;SHT31;52267;51.984;20.956;2022-07-29T03:03:12;10.48;76.87
65598;SHT31;52267;51.984;20.956;2022-07-29T03:05:41;10.47;77.12
65598;SHT31;52267;51.984;20.956;2022-07-29T03:08:09;10.50;76.95
65598;SHT31;52267;51.984;20.956;2022-07-29T03:10:43;10.51;76.92
65598;SHT31;52267;51.984;20.956;2022-07-29T03:13:11;10.51;76.75
65598;SHT31;52267;51.984;20.956;2022-07-29T03:15:39;10.51;76.74
65598;SHT31;52267;51.984;20.956;2022-07-29T03:18:10;10.51;76.44
65598;SHT31;52267;51.984;20.956;2022-07-29T03:20:37;10.49;76.29
65598;SHT31;52267;51.984;20.956;2022-07-29T03:23:05;10.46;76.56
65598;SHT31;52267;51.984;20.956;2022-07-29T03:25:34;10.43;76.96
65598;SHT31;52267;51.984;20.956;2022-07-29T03:28:01;10.40;77.27
65598;SHT31;52267;51.984;20.956;2022-07-29T03:30:29;10.41;77.25
65598;SHT31;52267;51.984;20.956;2022-07-29T03:32:57;10.38;77.67
65598;SHT31;52267;51.984;20.956;2022-07-29T03:35:23;10.38;77.70
65598;SHT31;52267;51.984;20.956;2022-07-29T03:37:51;10.43;77.56
65598;SHT31;52267;51.984;20.956;2022-07-29T03:40:19;10.48;77.38
65598;SHT31;52267;51.984;20.956;2022-07-29T03:42:57;10.50;77.74
65598;SHT31;52267;51.984;20.956;2022-07-29T03:45:27;10.52;77.89
65598;SHT31;52267;51.984;20.956;2022-07-29T03:47:59;10.54;77.99
65598;SHT31;52267;51.984;20.956;2022-07-29T03:50:39;10.55;78.21
65598;SHT31;52267;51.984;20.956;2022-07-29T03:53:07;10.60;77.98
65598;SHT31;52267;51.984;20.956;2022-07-29T03:55:40;10.66;78.04
65598;SHT31;52267;51.984;20.956;2022-07-29T03:58:11;10.70;78.34
65598;SHT31;52267;51.984;20.956;2022-07-29T04:00:40;10.77;78.37
65598;SHT31;52267;51.984;20.956;2022-07-29T04:03:08;10.83;78.39
65598;SHT31;52267;51.984;20.956;2022-07-29T04:05:35;10.89;78.52
65598;SHT31;52267;51.984;20.956;2022-07-29T04:08:03;10.94;78.65
65598;SHT31;52267;51.984;20.956;2022-07-29T04:10:31;11.00;78.59
65598;SHT31;52267;51.984;20.956;2022-07-29T04:12:59;11.09;78.53
65598;SHT31;52267;51.984;20.956;2022-07-29T04:15:26;11.18;78.72
65598;SHT31;52267;51.984;20.956;2022-07-29T04:17:55;11.27;79.02
65598;SHT31;52267;51.984;20.956;2022-07-29T04:20:22;11.36;79.17
65598;SHT31;52267;51.984;20.956;2022-07-29T04:22:49;11.45;79.55
65598;SHT31;52267;51.984;20.956;2022-07-29T04:25:16;11.54;79.69
65598;SHT31;52267;51.984;20.956;2022-07-29T04:27:43;11.63;79.70
65598;SHT31;52267;51.984;20.956;2022-07-29T04:30:29;11.73;80.07
65598;SHT31;52267;51.984;20.956;2022-07-29T04:32:58;11.83;79.77
65598;SHT31;52267;51.984;20.956;2022-07-29T04:35:27;11.94;79.89
65598;SHT31;52267;51.984;20.956;2022-07-29T04:37:55;12.06;79.89
65598;SHT31;52267;51.984;20.956;2022-07-29T04:40:22;12.18;80.09
65598;SHT31;52267;51.984;20.956;2022-07-29T04:42:49;12.30;80.23
65598;SHT31;52267;51.984;20.956;2022-07-29T04:45:16;12.39;80.47
65598;SHT31;52267;51.984;20.956;2022-07-29T04:47:43;12.50;80.51
65598;SHT31;52267;51.984;20.956;2022-07-29T04:50:11;12.63;80.60
65598;SHT31;52267;51.984;20.956;2022-07-29T04:52:38;12.79;80.85
65598;SHT31;52267;51.984;20.956;2022-07-29T04:55:05;12.95;80.98
65598;SHT31;52267;51.984;20.956;2022-07-29T04:57:32;13.12;81.27
65598;SHT31;52267;51.984;20.956;2022-07-29T05:00:00;13.28;80.96
65598;SHT31;52267;51.984;20.956;2022-07-29T05:02:27;13.45;81.12
65598;SHT31;52267;51.984;20.956;2022-07-29T05:04:54;13.62;81.26
65598;SHT31;52267;51.984;20.956;2022-07-29T05:07:21;13.78;81.02
65598;SHT31;52267;51.984;20.956;2022-07-29T05:09:48;13.92;81.17
65598;SHT31;52267;51.984;20.956;2022-07-29T05:12:15;14.09;81.08
65598;SHT31;52267;51.984;20.956;2022-07-29T05:14:42;14.24;81.10
65598;SHT31;52267;51.984;20.956;2022-07-29T05:17:09;14.39;80.99
65598;SHT31;52267;51.984;20.956;2022-07-29T05:19:36;14.54;80.91
65598;SHT31;52267;51.984;20.956;2022-07-29T05:22:03;14.69;81.08
65598;SHT31;52267;51.984;20.956;2022-07-29T05:24:30;14.84;81.09
65598;SHT31;52267;51.984;20.956;2022-07-29T05:26:57;14.99;81.06
65598;SHT31;52267;51.984;20.956;2022-07-29T05:29:24;15.16;80.95
65598;SHT31;52267;51.984;20.956;2022-07-29T05:31:51;15.31;80.54
65598;SHT31;52267;51.984;20.956;2022-07-29T05:34:19;15.44;80.56
65598;SHT31;52267;51.984;20.956;2022-07-29T05:36:46;15.58;80.52
65598;SHT31;52267;51.984;20.956;2022-07-29T05:39:13;15.73;80.47
65598;SHT31;52267;51.984;20.956;2022-07-29T05:41:40;15.90;80.14
65598;SHT31;52267;51.984;20.956;2022-07-29T05:44:07;16.04;79.90
65598;SHT31;52267;51.984;20.956;2022-07-29T05:46:34;16.12;79.72
65598;SHT31;52267;51.984;20.956;2022-07-29T05:49:01;16.22;79.55
65598;SHT31;52267;51.984;20.956;2022-07-29T05:51:29;16.32;79.46
65598;SHT31;52267;51.984;20.956;2022-07-29T05:53:56;16.44;79.19
65598;SHT31;52267;51.984;20.956;2022-07-29T05:56:23;16.56;78.97
65598;SHT31;52267;51.984;20.956;2022-07-29T05:58:51;16.70;78.83
65598;SHT31;52267;51.984;20.956;2022-07-29T06:01:18;16.83;78.55
65598;SHT31;52267;51.984;20.956;2022-07-29T06:03:46;16.97;78.29
65598;SHT31;52267;51.984;20.956;2022-07-29T06:06:13;17.10;78.02
65598;SHT31;52267;51.984;20.956;2022-07-29T06:08:40;17.24;77.92
65598;SHT31;52267;51.984;20.956;2022-07-29T06:11:07;17.36;77.80
65598;SHT31;52267;51.984;20.956;2022-07-29T06:13:34;17.48;77.60
65598;SHT31;52267;51.984;20.956;2022-07-29T06:16:01;17.63;77.32
65598;SHT31;52267;51.984;20.956;2022-07-29T06:18:29;17.75;76.52
65598;SHT31;52267;51.984;20.956;2022-07-29T06:20:56;17.90;76.32
65598;SHT31;52267;51.984;20.956;2022-07-29T06:23:24;18.04;76.17
65598;SHT31;52267;51.984;20.956;2022-07-29T06:25:50;18.20;76.10
65598;SHT31;52267;51.984;20.956;2022-07-29T06:28:17;18.39;75.85
65598;SHT31;52267;51.984;20.956;2022-07-29T06:30:45;18.55;75.41
65598;SHT31;52267;51.984;20.956;2022-07-29T06:33:15;18.70;74.77
65598;SHT31;52267;51.984;20.956;2022-07-29T06:35:45;18.83;74.45
65598;SHT31;52267;51.984;20.956;2022-07-29T06:38:13;18.98;74.33
65598;SHT31;52267;51.984;20.956;2022-07-29T06:40:42;19.19;73.86
65598;SHT31;52267;51.984;20.956;2022-07-29T06:43:32;19.40;73.48
65598;SHT31;52267;51.984;20.956;2022-07-29T06:46:04;19.58;72.90
65598;SHT31;52267;51.984;20.956;2022-07-29T06:48:38;19.76;72.43
65598;SHT31;52267;51.984;20.956;2022-07-29T06:51:06;19.93;71.81
65598;SHT31;52267;51.984;20.956;2022-07-29T06:53:34;20.11;71.68
65598;SHT31;52267;51.984;20.956;2022-07-29T06:56:02;20.33;71.30
65598;SHT31;52267;51.984;20.956;2022-07-29T06:58:31;20.54;70.86
65598;SHT31;52267;51.984;20.956;2022-07-29T07:00:58;20.70;69.76
65598;SHT31;52267;51.984;20.956;2022-07-29T07:03:29;20.81;69.31
65598;SHT31;52267;51.984;20.956;2022-07-29T07:05:56;20.92;68.87
65598;SHT31;52267;51.984;20.956;2022-07-29T07:08:24;21.10;68.83
65598;SHT31;52267;51.984;20.956;2022-07-29T07:10:51;21.37;68.49
65598;SHT31;52267;51.984;20.956;2022-07-29T07:13:19;21.65;67.86
65598;SHT31;52267;51.984;20.956;2022-07-29T07:15:46;21.89;67.31
65598;SHT31;52267;51.984;20.956;2022-07-29T07:18:15;22.10;66.81
65598;SHT31;52267;51.984;20.956;2022-07-29T07:20:42;22.35;66.24
65598;SHT31;52267;51.984;20.956;2022-07-29T07:23:09;22.62;65.86
65598;SHT31;52267;51.984;20.956;2022-07-29T07:25:37;22.86;65.12
65598;SHT31;52267;51.984;20.956;2022-07-29T07:28:04;23.08;63.71
65598;SHT31;52267;51.984;20.956;2022-07-29T07:30:31;23.31;63.54
65598;SHT31;52267;51.984;20.956;2022-07-29T07:32:59;23.55;62.96
65598;SHT31;52267;51.984;20.956;2022-07-29T07:35:26;23.79;62.89
65598;SHT31;52267;51.984;20.956;2022-07-29T07:37:55;23.92;61.26
65598;SHT31;52267;51.984;20.956;2022-07-29T07:40:23;24.16;61.55
65598;SHT31;52267;51.984;20.956;2022-07-29T07:42:51;24.39;61.09
65598;SHT31;52267;51.984;20.956;2022-07-29T07:45:18;24.43;59.62
65598;SHT31;52267;51.984;20.956;2022-07-29T07:47:45;24.60;59.36
65598;SHT31;52267;51.984;20.956;2022-07-29T07:50:13;24.72;58.32
65598;SHT31;52267;51.984;20.956;2022-07-29T07:52:47;24.73;58.00
65598;SHT31;52267;51.984;20.956;2022-07-29T07:55:19;24.86;56.87
65598;SHT31;52267;51.984;20.956;2022-07-29T07:57:47;24.88;56.11
65598;SHT31;52267;51.984;20.956;2022-07-29T08:00:14;24.99;57.08
65598;SHT31;52267;51.984;20.956;2022-07-29T08:02:44;25.17;56.76
65598;SHT31;52267;51.984;20.956;2022-07-29T08:05:11;25.34;56.55
65598;SHT31;52267;51.984;20.956;2022-07-29T08:07:44;25.61;55.98
65598;SHT31;52267;51.984;20.956;2022-07-29T08:10:15;25.55;54.67
65598;SHT31;52267;51.984;20.956;2022-07-29T08:13:06;25.79;56.03
65598;SHT31;52267;51.984;20.956;2022-07-29T08:15:34;26.13;54.74
65598;SHT31;52267;51.984;20.956;2022-07-29T08:18:02;26.44;54.31
65598;SHT31;52267;51.984;20.956;2022-07-29T08:20:29;26.71;52.82
65598;SHT31;52267;51.984;20.956;2022-07-29T08:22:58;26.90;53.03
65598;SHT31;52267;51.984;20.956;2022-07-29T08:25:25;27.09;52.51
65598;SHT31;52267;51.984;20.956;2022-07-29T08:27:52;27.21;51.89
65598;SHT31;52267;51.984;20.956;2022-07-29T08:30:19;27.32;52.02
65598;SHT31;52267;51.984;20.956;2022-07-29T08:32:47;27.57;51.21
65598;SHT31;52267;51.984;20.956;2022-07-29T08:35:15;27.67;49.51
65598;SHT31;52267;51.984;20.956;2022-07-29T08:37:42;27.70;50.17
65598;SHT31;52267;51.984;20.956;2022-07-29T08:40:09;27.88;50.02
65598;SHT31;52267;51.984;20.956;2022-07-29T08:42:37;28.13;49.42
65598;SHT31;52267;51.984;20.956;2022-07-29T08:45:04;28.41;48.99
65598;SHT31;52267;51.984;20.956;2022-07-29T08:47:32;28.63;48.01
65598;SHT31;52267;51.984;20.956;2022-07-29T08:50:00;28.69;47.92
65598;SHT31;52267;51.984;20.956;2022-07-29T08:52:27;28.60;47.58
65598;SHT31;52267;51.984;20.956;2022-07-29T08:54:59;28.44;47.67
65598;SHT31;52267;51.984;20.956;2022-07-29T08:57:26;28.29;46.47
65598;SHT31;52267;51.984;20.956;2022-07-29T08:59:54;28.10;47.03
65598;SHT31;52267;51.984;20.956;2022-07-29T09:02:22;27.58;46.90
65598;SHT31;52267;51.984;20.956;2022-07-29T09:04:49;27.70;47.19
65598;SHT31;52267;51.984;20.956;2022-07-29T09:07:17;27.95;45.90
65598;SHT31;52267;51.984;20.956;2022-07-29T09:09:45;28.26;46.18
65598;SHT31;52267;51.984;20.956;2022-07-29T09:12:12;28.64;46.15
65598;SHT31;52267;51.984;20.956;2022-07-29T09:14:40;28.78;45.45
65598;SHT31;52267;51.984;20.956;2022-07-29T09:17:07;28.93;44.85
65598;SHT31;52267;51.984;20.956;2022-07-29T09:19:35;29.04;43.80
65598;SHT31;52267;51.984;20.956;2022-07-29T09:22:04;29.04;44.05
65598;SHT31;52267;51.984;20.956;2022-07-29T09:27:18;29.06;43.15
65598;SHT31;52267;51.984;20.956;2022-07-29T09:29:59;29.12;43.16
65598;SHT31;52267;51.984;20.956;2022-07-29T09:32:27;29.26;42.97
65598;SHT31;52267;51.984;20.956;2022-07-29T09:35:14;29.21;42.18
65598;SHT31;52267;51.984;20.956;2022-07-29T09:37:44;28.93;42.56
65598;SHT31;52267;51.984;20.956;2022-07-29T09:40:13;28.97;43.64
65598;SHT31;52267;51.984;20.956;2022-07-29T09:42:43;29.06;43.51
65598;SHT31;52267;51.984;20.956;2022-07-29T09:45:10;29.04;43.73
65598;SHT31;52267;51.984;20.956;2022-07-29T09:50:15;28.81;43.90
65598;SHT31;52267;51.984;20.956;2022-07-29T09:52:49;28.81;43.85
65598;SHT31;52267;51.984;20.956;2022-07-29T09:55:18;28.58;43.32
65598;SHT31;52267;51.984;20.956;2022-07-29T09:57:46;28.15;43.99
65598;SHT31;52267;51.984;20.956;2022-07-29T10:00:17;28.05;44.50
65598;SHT31;52267;51.984;20.956;2022-07-29T10:02:46;27.87;44.60
65598;SHT31;52267;51.984;20.956;2022-07-29T10:10:21;27.36;45.02
65598;SHT31;52267;51.984;20.956;2022-07-29T10:12:53;27.39;45.52
65598;SHT31;52267;51.984;20.956;2022-07-29T10:15:22;27.49;45.61
65598;SHT31;52267;51.984;20.956;2022-07-29T10:17:52;27.53;44.69
65598;SHT31;52267;51.984;20.956;2022-07-29T10:20:21;27.37;44.63
65598;SHT31;52267;51.984;20.956;2022-07-29T10:22:51;27.43;44.80
65598;SHT31;52267;51.984;20.956;2022-07-29T10:25:19;27.75;44.43
65598;SHT31;52267;51.984;20.956;2022-07-29T10:27:47;27.98;43.98
65598;SHT31;52267;51.984;20.956;2022-07-29T10:30:16;28.17;43.43
65598;SHT31;52267;51.984;20.956;2022-07-29T10:42:20;29.43;42.60
65598;SHT31;52267;51.984;20.956;2022-07-29T10:44:50;29.25;41.82
65598;SHT31;52267;51.984;20.956;2022-07-29T10:47:19;29.35;41.88
65598;SHT31;52267;51.984;20.956;2022-07-29T10:50:04;29.48;41.76
65598;SHT31;52267;51.984;20.956;2022-07-29T10:55:34;29.63;40.99
65598;SHT31;52267;51.984;20.956;2022-07-29T10:58:24;29.80;41.19
65598;SHT31;52267;51.984;20.956;2022-07-29T11:00:52;29.94;40.49
65598;SHT31;52267;51.984;20.956;2022-07-29T11:06:08;29.96;40.51
65598;SHT31;52267;51.984;20.956;2022-07-29T11:08:35;29.76;40.14
65598;SHT31;52267;51.984;20.956;2022-07-29T11:11:30;29.73;40.00
65598;SHT31;52267;51.984;20.956;2022-07-29T11:13:56;29.57;39.32
65598;SHT31;52267;51.984;20.956;2022-07-29T11:16:23;28.97;39.26
65598;SHT31;52267;51.984;20.956;2022-07-29T11:21:44;28.44;41.45
65598;SHT31;52267;51.984;20.956;2022-07-29T11:24:20;28.37;41.98
65598;SHT31;52267;51.984;20.956;2022-07-29T11:27:11;28.28;41.87
65598;SHT31;52267;51.984;20.956;2022-07-29T11:32:24;28.14;41.57
65598;SHT31;52267;51.984;20.956;2022-07-29T11:35:35;28.27;41.88
65598;SHT31;52267;51.984;20.956;2022-07-29T11:49:20;28.19;42.42
65598;SHT31;52267;51.984;20.956;2022-07-29T11:51:51;28.07;41.81
65598;SHT31;52267;51.984;20.956;2022-07-29T11:54:24;28.08;41.97
65598;SHT31;52267;51.984;20.956;2022-07-29T11:57:01;28.03;41.49
65598;SHT31;52267;51.984;20.956;2022-07-29T11:59:28;28.02;41.93
65598;SHT31;52267;51.984;20.956;2022-07-29T12:01:56;28.13;42.13
65598;SHT31;52267;51.984;20.956;2022-07-29T12:04:25;28.21;42.46
65598;SHT31;52267;51.984;20.956;2022-07-29T12:06:53;28.25;42.40
65598;SHT31;52267;51.984;20.956;2022-07-29T12:09:21;28.23;42.44
65598;SHT31;52267;51.984;20.956;2022-07-29T12:11:58;28.00;42.20
65598;SHT31;52267;51.984;20.956;2022-07-29T12:14:27;27.73;42.90
65598;SHT31;52267;51.984;20.956;2022-07-29T12:16:56;27.77;42.68
65598;SHT31;52267;51.984;20.956;2022-07-29T12:19:24;27.74;43.22
65598;SHT31;52267;51.984;20.956;2022-07-29T12:21:52;27.75;43.49
65598;SHT31;52267;51.984;20.956;2022-07-29T12:24:21;27.84;44.17
65598;SHT31;52267;51.984;20.956;2022-07-29T12:26:49;28.01;43.53
65598;SHT31;52267;51.984;20.956;2022-07-29T12:29:23;28.01;43.53
65598;SHT31;52267;51.984;20.956;2022-07-29T12:31:53;27.99;42.85
65598;SHT31;52267;51.984;20.956;2022-07-29T12:34:22;28.07;43.27
65598;SHT31;52267;51.984;20.956;2022-07-29T12:36:50;28.32;42.68
65598;SHT31;52267;51.984;20.956;2022-07-29T12:39:17;28.63;42.72
65598;SHT31;52267;51.984;20.956;2022-07-29T12:41:46;28.84;42.10
65598;SHT31;52267;51.984;20.956;2022-07-29T12:44:13;28.90;41.68
65598;SHT31;52267;51.984;20.956;2022-07-29T12:46:40;28.89;41.77
65598;SHT31;52267;51.984;20.956;2022-07-29T12:49:07;28.70;41.46
65598;SHT31;52267;51.984;20.956;2022-07-29T12:51:36;28.68;41.72
65598;SHT31;52267;51.984;20.956;2022-07-29T12:54:09;28.83;41.62
65598;SHT31;52267;51.984;20.956;2022-07-29T12:56:40;28.84;41.73
65598;SHT31;52267;51.984;20.956;2022-07-29T12:59:16;28.83;41.78
65598;SHT31;52267;51.984;20.956;2022-07-29T13:01:49;28.74;41.32
65598;SHT31;52267;51.984;20.956;2022-07-29T13:04:33;28.66;41.51
65598;SHT31;52267;51.984;20.956;2022-07-29T13:07:06;28.60;41.46
65598;SHT31;52267;51.984;20.956;2022-07-29T13:09:40;28.57;41.55
65598;SHT31;52267;51.984;20.956;2022-07-29T13:12:14;28.46;41.42
65598;SHT31;52267;51.984;20.956;2022-07-29T13:14:42;28.43;41.74
65598;SHT31;52267;51.984;20.956;2022-07-29T13:17:15;28.43;42.09
65598;SHT31;52267;51.984;20.956;2022-07-29T13:19:52;28.50;41.91
65598;SHT31;52267;51.984;20.956;2022-07-29T13:22:35;28.55;41.70
65598;SHT31;52267;51.984;20.956;2022-07-29T13:25:02;28.55;42.06
65598;SHT31;52267;51.984;20.956;2022-07-29T13:27:31;28.42;42.12
65598;SHT31;52267;51.984;20.956;2022-07-29T13:30:00;28.47;41.99
65598;SHT31;52267;51.984;20.956;2022-07-29T13:32:31;28.48;42.13
65598;SHT31;52267;51.984;20.956;2022-07-29T13:35:06;28.52;41.91
65598;SHT31;52267;51.984;20.956;2022-07-29T13:37:34;28.63;41.98
65598;SHT31;52267;51.984;20.956;2022-07-29T13:40:05;28.63;42.23
65598;SHT31;52267;51.984;20.956;2022-07-29T13:42:36;28.53;42.29
65598;SHT31;52267;51.984;20.956;2022-07-29T13:45:04;28.74;41.77
65598;SHT31;52267;51.984;20.956;2022-07-29T13:47:32;28.89;41.72
65598;SHT31;52267;51.984;20.956;2022-07-29T13:50:00;29.00;41.08
65598;SHT31;52267;51.984;20.956;2022-07-29T13:52:28;29.20;41.05
65598;SHT31;52267;51.984;20.956;2022-07-29T13:54:56;29.31;40.36
65598;SHT31;52267;51.984;20.956;2022-07-29T13:57:23;29.35;40.61
65598;SHT31;52267;51.984;20.956;2022-07-29T13:59:50;29.38;40.73
65598;SHT31;52267;51.984;20.956;2022-07-29T14:02:17;29.37;40.83
65598;SHT31;52267;51.984;20.956;2022-07-29T14:04:44;29.30;40.80
65598;SHT31;52267;51.984;20.956;2022-07-29T14:07:11;29.16;40.76
65598;SHT31;52267;51.984;20.956;2022-07-29T14:09:38;29.22;40.52
65598;SHT31;52267;51.984;20.956;2022-07-29T14:12:06;29.33;40.44
65598;SHT31;52267;51.984;20.956;2022-07-29T14:14:33;29.23;39.93
65598;SHT31;52267;51.984;20.956;2022-07-29T14:17:02;29.15;40.11
65598;SHT31;52267;51.984;20.956;2022-07-29T14:19:29;29.33;39.92
65598;SHT31;52267;51.984;20.956;2022-07-29T14:21:58;29.43;39.62
65598;SHT31;52267;51.984;20.956;2022-07-29T14:24:25;29.56;39.67
65598;SHT31;52267;51.984;20.956;2022-07-29T14:26:52;29.59;39.57
65598;SHT31;52267;51.984;20.956;2022-07-29T14:29:19;29.51;39.92
65598;SHT31;52267;51.984;20.956;2022-07-29T14:31:46;29.31;39.74
65598;SHT31;52267;51.984;20.956;2022-07-29T14:34:13;29.12;39.86
65598;SHT31;52267;51.984;20.956;2022-07-29T14:36:41;28.76;40.03
65598;SHT31;52267;51.984;20.956;2022-07-29T14:39:08;28.30;40.21
65598;SHT31;52267;51.984;20.956;2022-07-29T14:41:37;28.13;40.58
65598;SHT31;52267;51.984;20.956;2022-07-29T14:44:04;27.99;40.75
65598;SHT31;52267;51.984;20.956;2022-07-29T14:46:31;27.97;40.82
65598;SHT31;52267;51.984;20.956;2022-07-29T14:48:58;28.07;41.20
65598;SHT31;52267;51.984;20.956;2022-07-29T14:51:25;28.13;41.24
65598;SHT31;52267;51.984;20.956;2022-07-29T14:53:52;28.20;40.98
65598;SHT31;52267;51.984;20.956;2022-07-29T14:56:19;28.17;40.91
65598;SHT31;52267;51.984;20.956;2022-07-29T14:58:46;28.18;40.96
65598;SHT31;52267;51.984;20.956;2022-07-29T15:01:13;28.27;41.02
65598;SHT31;52267;51.984;20.956;2022-07-29T15:03:41;28.31;41.02
65598;SHT31;52267;51.984;20.956;2022-07-29T15:06:08;28.24;41.08
65598;SHT31;52267;51.984;20.956;2022-07-29T15:08:35;27.91;41.35
65598;SHT31;52267;51.984;20.956;2022-07-29T15:11:02;27.67;41.84
65598;SHT31;52267;51.984;20.956;2022-07-29T15:13:29;27.48;41.97
65598;SHT31;52267;51.984;20.956;2022-07-29T15:15:56;27.33;41.96
65598;SHT31;52267;51.984;20.956;2022-07-29T15:18:23;27.36;41.96
65598;SHT31;52267;51.984;20.956;2022-07-29T15:20:50;27.40;41.78
65598;SHT31;52267;51.984;20.956;2022-07-29T15:23:17;27.47;41.82
65598;SHT31;52267;51.984;20.956;2022-07-29T15:25:44;27.58;41.66
65598;SHT31;52267;51.984;20.956;2022-07-29T15:28:11;27.68;41.64
65598;SHT31;52267;51.984;20.956;2022-07-29T15:30:38;27.63;41.34
65598;SHT31;52267;51.984;20.956;2022-07-29T15:33:08;27.61;41.56
65598;SHT31;52267;51.984;20.956;2022-07-29T15:35:36;27.75;41.63
65598;SHT31;52267;51.984;20.956;2022-07-29T15:38:04;27.75;41.20
65598;SHT31;52267;51.984;20.956;2022-07-29T15:40:31;27.77;41.35
65598;SHT31;52267;51.984;20.956;2022-07-29T15:42:58;27.73;41.41
65598;SHT31;52267;51.984;20.956;2022-07-29T15:45:41;27.72;41.40
65598;SHT31;52267;51.984;20.956;2022-07-29T15:48:32;27.59;41.25
65598;SHT31;52267;51.984;20.956;2022-07-29T15:50:59;27.42;41.47
65598;SHT31;52267;51.984;20.956;2022-07-29T15:53:26;27.31;41.61
65598;SHT31;52267;51.984;20.956;2022-07-29T15:55:53;27.28;41.75
65598;SHT31;52267;51.984;20.956;2022-07-29T15:58:20;27.27;41.69
65598;SHT31;52267;51.984;20.956;2022-07-29T16:00:48;27.17;41.90
65598;SHT31;52267;51.984;20.956;2022-07-29T16:03:15;27.11;41.75
65598;SHT31;52267;51.984;20.956;2022-07-29T16:05:42;27.04;41.93
65598;SHT31;52267;51.984;20.956;2022-07-29T16:08:09;27.04;42.09
65598;SHT31;52267;51.984;20.956;2022-07-29T16:10:36;27.05;42.13
65598;SHT31;52267;51.984;20.956;2022-07-29T16:13:04;26.98;42.02
65598;SHT31;52267;51.984;20.956;2022-07-29T16:15:31;26.83;42.06
65598;SHT31;52267;51.984;20.956;2022-07-29T16:17:58;26.77;42.59
65598;SHT31;52267;51.984;20.956;2022-07-29T16:20:26;26.76;42.56
65598;SHT31;52267;51.984;20.956;2022-07-29T16:22:53;26.77;42.96
65598;SHT31;52267;51.984;20.956;2022-07-29T16:25:20;26.73;43.03
65598;SHT31;52267;51.984;20.956;2022-07-29T16:27:47;26.69;42.83
65598;SHT31;52267;51.984;20.956;2022-07-29T16:30:14;26.62;43.06